Time;durP1;ratioP1;P1;durP2;ratioP2;P2;SDS_P1;SDS_P2;PMS_P1;PMS_P2;Temp;Humidity;BMP_temperature;BMP_pressure;BME280_temperature;BME280_humidity;BME280_pressure;Samples;Min_cycle;Max_cycle;Signal;HPM_P1;HPM_P2
2022/04/22 00:00:08;;;;;;;23.67;17.70;;;8.30;98.10;;;;;;5051503;28;20021;-75
2022/04/22 00:02:35;;;;;;;19.50;15.23;;;8.30;97.70;;;;;;5051260;28;20041;-76
2022/04/22 00:05:01;;;;;;;18.17;15.95;;;8.30;97.70;;;;;;5051522;28;20021;-76
2022/04/22 00:07:28;;;;;;;20.50;16.58;;;8.30;97.60;;;;;;5051967;28;20025;-76
2022/04/22 00:09:55;;;;;;;20.65;15.70;;;8.30;97.50;;;;;;5051974;28;20098;-76
2022/04/22 00:12:21;;;;;;;18.52;15.52;;;8.30;97.50;;;;;;5051027;28;20021;-77
2022/04/22 00:14:48;;;;;;;22.77;17.95;;;8.30;97.50;;;;;;5051702;28;20029;-75
2022/04/22 00:17:14;;;;;;;22.45;17.90;;;8.30;97.60;;;;;;5051949;28;20033;-76
2022/04/22 00:19:40;;;;;;;19.05;17.05;;;8.40;97.60;;;;;;5054986;28;20387;-76
2022/04/22 00:22:05;;;;;;;24.42;19.25;;;8.40;97.50;;;;;;5055294;28;20025;-75
2022/04/22 00:24:31;;;;;;;24.98;17.70;;;8.40;97.40;;;;;;5054764;28;20013;-75
2022/04/22 00:26:57;;;;;;;19.60;17.17;;;8.50;97.30;;;;;;5054792;28;20021;-76
2022/04/22 00:29:23;;;;;;;21.20;18.38;;;8.50;97.20;;;;;;5054539;28;20368;-77
2022/04/22 00:31:49;;;;;;;23.08;19.65;;;8.60;97.10;;;;;;5036035;28;20032;-75
2022/04/22 00:34:15;;;;;;;21.33;18.58;;;8.60;97.10;;;;;;5054589;28;20029;-75
2022/04/22 00:36:41;;;;;;;23.80;20.08;;;8.60;97.10;;;;;;5036578;28;20064;-74
2022/04/22 00:39:07;;;;;;;28.48;22.05;;;8.60;97.00;;;;;;5036880;28;20064;-76
2022/04/22 00:41:33;;;;;;;25.92;22.13;;;8.70;96.90;;;;;;5054383;28;20021;-75
2022/04/22 00:43:59;;;;;;;27.83;22.48;;;8.70;96.90;;;;;;5036553;28;20061;-74
2022/04/22 00:46:25;;;;;;;27.80;23.75;;;8.70;96.80;;;;;;5054260;28;20014;-75
2022/04/22 00:48:50;;;;;;;22.98;17.98;;;8.70;97.00;;;;;;5053581;28;20253;-78
2022/04/22 00:51:18;;;;;;;22.40;19.65;;;8.80;96.70;;;;;;5036500;28;20371;-77
2022/04/22 00:53:46;;;;;;;22.33;18.98;;;8.80;96.60;;;;;;5054153;28;20494;-76
2022/04/22 00:56:12;;;;;;;23.27;19.58;;;8.70;96.50;;;;;;5036782;28;20025;-75
2022/04/22 00:58:43;;;;;;;25.77;20.83;;;8.70;96.60;;;;;;5054183;28;20457;-76
2022/04/22 01:01:11;;;;;;;27.73;21.23;;;8.70;96.60;;;;;;5054476;28;20055;-77
2022/04/22 01:03:37;;;;;;;24.83;20.42;;;8.70;96.40;;;;;;5054059;28;20551;-74
2022/04/22 01:11:37;;;;;;;29.33;22.75;;;8.70;96.60;;;;;;5053781;28;20394;-75
2022/04/22 01:14:05;;;;;;;31.10;23.48;;;8.80;96.60;;;;;;5054081;28;20032;-75
2022/04/22 01:16:31;;;;;;;29.80;23.85;;;8.90;96.50;;;;;;5053823;28;20017;-75
2022/04/22 01:18:57;;;;;;;26.75;22.73;;;8.80;96.40;;;;;;5035623;28;20036;-74
2022/04/22 01:21:23;;;;;;;31.80;23.92;;;8.70;96.40;;;;;;5053075;28;20032;-75
2022/04/22 01:23:49;;;;;;;27.88;20.67;;;8.70;96.40;;;;;;5053269;28;20075;-75
2022/04/22 01:26:16;;;;;;;29.13;23.58;;;8.70;96.50;;;;;;5053507;28;20460;-75
2022/04/22 01:28:42;;;;;;;29.02;23.10;;;8.70;96.50;;;;;;5053211;28;20120;-76
2022/04/22 01:31:08;;;;;;;27.65;21.60;;;8.70;96.50;;;;;;5053512;28;20049;-76
2022/04/22 01:33:34;;;;;;;30.70;23.67;;;8.60;96.50;;;;;;5053248;28;20025;-75
2022/04/22 01:36:00;;;;;;;27.55;23.77;;;8.70;96.50;;;;;;5053224;28;20049;-76
2022/04/22 01:38:26;;;;;;;32.38;25.08;;;8.70;96.60;;;;;;5035014;28;20043;-75
2022/04/22 01:40:52;;;;;;;31.38;24.25;;;8.70;96.60;;;;;;5053264;28;20021;-78
2022/04/22 01:43:18;;;;;;;31.73;25.05;;;8.70;96.50;;;;;;5053424;28;20033;-77
2022/04/22 01:45:44;;;;;;;35.28;27.02;;;8.80;96.50;;;;;;5053188;28;20398;-75
2022/04/22 01:48:10;;;;;;;37.47;26.45;;;8.80;96.60;;;;;;5052891;28;20017;-76
2022/04/22 01:50:36;;;;;;;36.92;27.77;;;8.90;96.50;;;;;;5035098;28;20024;-76
2022/04/22 01:53:03;;;;;;;33.20;26.42;;;8.90;96.40;;;;;;5053088;28;20368;-76
2022/04/22 01:55:28;;;;;;;33.13;26.65;;;9.00;96.30;;;;;;5052423;28;20031;-76
2022/04/22 01:57:54;;;;;;;36.45;27.55;;;9.00;96.20;;;;;;5052832;28;20103;-76
2022/04/22 02:00:21;;;;;;;37.05;27.77;;;9.00;96.20;;;;;;5052238;28;20082;-77
2022/04/22 02:02:47;;;;;;;31.95;26.73;;;9.00;96.10;;;;;;5052614;28;20525;-75
2022/04/22 02:05:12;;;;;;;34.03;26.02;;;9.00;96.10;;;;;;5034793;28;20033;-76
2022/04/22 02:07:41;;;;;;;34.97;27.60;;;8.90;96.00;;;;;;5052580;28;20017;-75
2022/04/22 02:10:08;;;;;;;36.03;27.30;;;8.90;96.10;;;;;;5052260;28;20037;-76
2022/04/22 02:12:34;;;;;;;35.08;27.20;;;8.80;96.10;;;;;;5052616;28;20032;-75
2022/04/22 02:15:01;;;;;;;37.63;28.55;;;8.80;96.20;;;;;;5052653;28;20131;-75
2022/04/22 02:17:27;;;;;;;36.25;28.70;;;8.80;96.30;;;;;;5052694;28;20104;-75
2022/04/22 02:19:53;;;;;;;39.70;29.25;;;8.80;96.50;;;;;;5052384;28;20037;-76
2022/04/22 02:22:19;;;;;;;36.50;27.17;;;8.90;96.50;;;;;;5041548;28;20018;-76
2022/04/22 02:24:45;;;;;;;34.50;25.45;;;8.90;96.40;;;;;;5034435;28;20048;-76
2022/04/22 02:29:55;;;;;;;29.63;22.27;;;8.90;96.30;;;;;;5052520;28;20079;-77
2022/04/22 02:32:21;;;;;;;28.20;21.45;;;8.80;96.30;;;;;;5052313;28;20017;-75
2022/04/22 02:34:46;;;;;;;28.70;22.77;;;8.70;96.50;;;;;;5052152;28;20045;-76
2022/04/22 02:37:12;;;;;;;33.05;24.25;;;8.70;96.50;;;;;;5050307;28;20465;-76
2022/04/22 02:39:38;;;;;;;33.80;24.67;;;8.70;96.40;;;;;;5052166;28;20017;-76
2022/04/22 02:47:32;;;;;;;38.53;25.83;;;8.40;97.00;;;;;;5052012;28;20071;-74
2022/04/22 02:49:59;;;;;;;43.65;27.63;;;8.50;97.20;;;;;;5051905;28;20478;-76
2022/04/22 02:52:24;;;;;;;36.03;26.90;;;8.50;97.20;;;;;;5034162;28;20036;-75
2022/04/22 02:54:50;;;;;;;37.65;26.08;;;8.60;97.20;;;;;;5052108;28;20470;-75
2022/04/22 02:57:16;;;;;;;43.20;26.92;;;8.60;97.20;;;;;;5051917;28;20466;-75
2022/04/22 02:59:45;;;;;;;41.75;23.60;;;8.70;97.10;;;;;;5051184;28;20025;-76
2022/04/22 03:02:11;;;;;;;38.97;26.23;;;8.70;97.00;;;;;;5051839;28;20032;-75
2022/04/22 03:04:36;;;;;;;38.22;24.67;;;8.60;97.00;;;;;;5051836;28;20025;-76
2022/04/22 03:07:03;;;;;;;40.20;26.42;;;8.50;97.30;;;;;;5052080;28;20058;-76
2022/04/22 03:09:28;;;;;;;45.25;28.55;;;8.50;97.50;;;;;;5051742;28;20085;-75
2022/04/22 03:11:54;;;;;;;47.08;29.05;;;8.50;97.50;;;;;;5051898;28;20064;-75
2022/04/22 03:14:20;;;;;;;37.03;25.00;;;8.60;97.50;;;;;;5051169;28;20063;-77
2022/04/22 03:16:46;;;;;;;43.60;27.13;;;8.60;97.50;;;;;;5051818;28;20450;-75
2022/04/22 03:19:12;;;;;;;44.50;26.95;;;8.60;97.50;;;;;;5051762;28;20017;-75
2022/04/22 03:21:38;;;;;;;35.97;24.67;;;8.60;97.50;;;;;;5051790;28;20501;-76
2022/04/22 03:24:04;;;;;;;40.65;25.23;;;8.60;97.40;;;;;;5051537;28;20454;-76
2022/04/22 03:26:30;;;;;;;38.60;24.27;;;8.70;97.50;;;;;;5051597;28;20043;-76
2022/04/22 03:28:57;;;;;;;34.03;23.42;;;8.70;97.50;;;;;;5050898;28;20151;-76
2022/04/22 03:31:23;;;;;;;30.25;21.40;;;8.70;97.40;;;;;;5051527;28;20017;-76
2022/04/22 03:33:49;;;;;;;28.70;19.58;;;8.70;97.30;;;;;;5051627;28;20029;-77
2022/04/22 03:36:14;;;;;;;26.67;19.52;;;8.70;97.40;;;;;;5051541;28;20128;-76
2022/04/22 03:38:41;;;;;;;28.15;18.05;;;8.70;97.20;;;;;;5051607;28;20534;-77
2022/04/22 03:41:06;;;;;;;26.50;17.98;;;8.60;97.20;;;;;;5051590;28;20052;-75
2022/04/22 03:43:32;;;;;;;30.80;19.50;;;8.70;97.30;;;;;;5051523;28;20056;-74
2022/04/22 03:45:59;;;;;;;33.85;21.13;;;8.60;97.20;;;;;;5033000;28;20033;-76
2022/04/22 03:48:24;;;;;;;23.50;17.63;;;8.60;97.30;;;;;;5051194;28;20025;-75
2022/04/22 03:50:50;;;;;;;22.23;17.52;;;8.60;97.40;;;;;;5051496;28;20029;-76
2022/04/22 03:53:16;;;;;;;29.88;20.42;;;8.70;97.40;;;;;;5052957;28;20084;-76
2022/04/22 03:55:44;;;;;;;30.35;19.92;;;8.70;97.10;;;;;;5055156;28;20033;-74
2022/04/22 03:58:10;;;;;;;28.83;20.08;;;8.60;97.10;;;;;;5055199;28;20104;-78
2022/04/22 04:00:50;;;;;;;41.78;25.60;;;8.60;97.20;;;;;;5054330;28;20071;-75
2022/04/22 04:03:18;;;;;;;34.72;24.25;;;8.60;97.20;;;;;;5055009;28;20104;-75
2022/04/22 04:05:50;;;;;;;;;;;8.60;97.20;;;;;;5055561;28;20390;-77
2022/04/22 04:08:20;;;;;;;29.92;20.95;;;8.60;97.00;;;;;;5055036;28;19947;-75
2022/04/22 04:16:16;;;;;;;35.35;24.42;;;8.40;97.30;;;;;;5055417;28;20638;-76
2022/04/22 04:18:42;;;;;;;30.48;23.05;;;8.40;97.40;;;;;;5036586;28;20028;-77
2022/04/22 04:23:56;;;;;;;35.92;25.90;;;8.40;97.60;;;;;;5043158;28;20079;-77
2022/04/22 04:26:24;;;;;;;33.22;24.25;;;8.40;97.70;;;;;;5054884;28;20067;-77
2022/04/22 04:28:50;;;;;;;39.63;24.52;;;8.30;97.80;;;;;;5053446;28;20037;-77
2022/04/22 04:31:16;;;;;;;30.60;22.95;;;8.30;98.00;;;;;;5036286;28;20446;-75
2022/04/22 04:33:42;;;;;;;32.75;23.20;;;8.30;98.10;;;;;;5051415;28;20032;-76
2022/04/22 04:36:12;;;;;;;34.13;23.10;;;8.20;98.20;;;;;;5053522;28;20494;-76
2022/04/22 04:38:39;;;;;;;35.08;23.63;;;8.20;98.30;;;;;;5055439;28;20135;-76
2022/04/22 04:41:07;;;;;;;27.08;16.40;;;8.20;98.50;;;;;;5054505;28;20484;-77
2022/04/22 04:43:34;;;;;;;26.45;15.57;;;8.20;98.40;;;;;;5036435;28;20486;-76
2022/04/22 04:46:00;;;;;;;25.42;17.63;;;8.20;98.50;;;;;;5054137;28;20035;-77
2022/04/22 04:48:26;;;;;;;22.65;14.13;;;8.20;98.70;;;;;;5036298;28;20016;-76
2022/04/22 04:50:52;;;;;;;34.15;19.55;;;8.30;98.70;;;;;;5035394;28;20498;-76
2022/04/22 04:53:20;;;;;;;28.83;18.80;;;8.30;98.70;;;;;;5036670;28;20053;-76
2022/04/22 04:55:46;;;;;;;25.25;16.98;;;8.30;98.80;;;;;;5054499;28;20036;-75
2022/04/22 04:58:12;;;;;;;23.40;15.32;;;8.50;98.80;;;;;;5054233;28;20025;-76
2022/04/22 05:00:38;;;;;;;29.20;16.83;;;8.70;98.60;;;;;;5054302;28;20079;-76
2022/04/22 05:03:03;;;;;;;22.52;14.57;;;8.80;98.20;;;;;;5053861;28;20044;-75
2022/04/22 05:05:29;;;;;;;21.48;14.57;;;8.90;97.60;;;;;;5053081;28;20061;-76
2022/04/22 05:07:57;;;;;;;20.90;14.02;;;8.90;97.10;;;;;;5053976;28;20079;-77
2022/04/22 05:10:24;;;;;;;;;;;9.00;96.90;;;;;;5054424;28;20105;-75
2022/04/22 05:12:50;;;;;;;26.23;14.40;;;9.00;96.80;;;;;;5036127;28;19905;-77
2022/04/22 05:15:17;;;;;;;27.48;13.95;;;9.00;96.60;;;;;;5053279;28;20269;-76
2022/04/22 05:17:44;;;;;;;21.88;13.95;;;9.10;96.40;;;;;;5053638;28;20029;-77
2022/04/22 05:20:11;;;;;;;24.48;14.50;;;9.20;96.10;;;;;;5053221;28;20024;-77
2022/04/22 05:22:38;;;;;;;22.45;15.93;;;9.30;95.90;;;;;;5052685;28;20029;-76
2022/04/22 05:25:10;;;;;;;24.53;16.27;;;9.40;95.60;;;;;;5053533;28;20036;-76
2022/04/22 05:27:36;;;;;;;27.25;16.83;;;9.50;95.10;;;;;;5035671;28;20336;-77
2022/04/22 05:32:48;;;;;;;23.02;15.60;;;9.70;94.40;;;;;;5034553;28;20020;-75
2022/04/22 05:35:19;;;;;;;16.73;12.75;;;9.80;94.30;;;;;;5033446;28;20049;-77
2022/04/22 05:38:02;;;;;;;14.23;9.55;;;10.00;94.00;;;;;;5039423;28;20367;-77
2022/04/22 05:40:33;;;;;;;16.58;10.38;;;10.00;93.00;;;;;;5053015;28;20112;-76
2022/04/22 05:42:59;;;;;;;18.05;11.48;;;9.90;92.70;;;;;;5053174;28;20021;-77
2022/04/22 05:45:26;;;;;;;12.48;8.88;;;9.90;92.70;;;;;;5053056;28;20025;-76
2022/04/22 05:47:52;;;;;;;14.65;10.52;;;9.80;92.30;;;;;;5034851;28;20032;-76
2022/04/22 05:50:20;;;;;;;15.00;10.15;;;9.70;92.80;;;;;;5053007;28;20369;-77
2022/04/22 05:52:45;;;;;;;13.77;9.80;;;9.90;92.50;;;;;;5053038;28;20453;-78
2022/04/22 05:55:20;;;;;;;12.30;9.98;;;9.80;92.20;;;;;;5052066;28;20065;-77
2022/04/22 05:57:48;;;;;;;13.40;10.65;;;9.90;92.20;;;;;;5052866;28;20017;-77
2022/04/22 06:00:16;;;;;;;17.00;11.15;;;10.00;92.10;;;;;;5052586;28;20473;-77
2022/04/22 06:02:44;;;;;;;19.73;12.15;;;10.00;91.90;;;;;;5052549;28;20056;-78
2022/04/22 06:05:11;;;;;;;15.27;12.55;;;10.00;91.80;;;;;;5052702;28;20028;-76
2022/04/22 06:07:41;;;;;;;14.98;11.38;;;10.00;91.60;;;;;;5052609;28;20033;-76
2022/04/22 06:12:52;;;;;;;15.27;11.35;;;10.00;91.80;;;;;;5052207;28;20090;-75
2022/04/22 06:15:19;;;;;;;14.05;10.70;;;10.10;91.90;;;;;;5034172;28;20025;-77
2022/04/22 06:17:44;;;;;;;13.52;9.52;;;10.20;91.50;;;;;;5052404;28;20510;-76
2022/04/22 06:20:11;;;;;;;12.05;10.00;;;10.20;91.40;;;;;;5052223;28;20216;-77
2022/04/22 06:22:37;;;;;;;15.10;10.38;;;10.30;91.20;;;;;;5029177;28;20521;-76
2022/04/22 06:25:03;;;;;;;15.45;10.23;;;10.30;91.50;;;;;;5040331;28;20033;-77
2022/04/22 06:27:37;;;;;;;28.52;9.82;;;10.50;91.10;;;;;;5051186;28;20029;-76
2022/04/22 06:30:10;;;;;;;14.73;10.23;;;10.70;90.70;;;;;;5051710;28;20492;-78
2022/04/22 06:32:38;;;;;;;13.43;9.13;;;11.00;90.30;;;;;;5023986;28;20492;-76
2022/04/22 06:35:05;;;;;;;14.25;9.30;;;11.30;89.80;;;;;;5044445;28;20076;-76
2022/04/22 06:37:39;;;;;;;11.63;8.65;;;11.40;87.70;;;;;;5050904;28;20043;-78
2022/04/22 06:45:46;;;;;;;18.00;8.68;;;11.50;87.60;;;;;;5052453;28;20047;-79
2022/04/22 06:48:16;;;;;;;12.35;7.75;;;11.70;86.70;;;;;;5034321;28;20052;-79
2022/04/22 06:50:44;;;;;;;11.75;7.55;;;11.80;85.40;;;;;;5052840;28;20027;-76
2022/04/22 06:53:11;;;;;;;10.23;7.18;;;11.90;84.80;;;;;;5052060;28;20024;-78
2022/04/22 06:55:38;;;;;;;18.83;7.70;;;12.00;84.50;;;;;;5033715;28;20143;-80
2022/04/22 06:58:09;;;;;;;21.13;8.48;;;12.10;84.30;;;;;;5033047;28;20017;-79
2022/04/22 07:00:35;;;;;;;15.05;8.77;;;12.20;83.80;;;;;;5051495;28;20108;-80
2022/04/22 07:03:01;;;;;;;11.52;7.72;;;12.30;83.50;;;;;;5052000;28;20025;-80
2022/04/22 07:05:28;;;;;;;12.13;8.45;;;12.10;81.80;;;;;;5051975;28;20057;-77
2022/04/22 07:07:53;;;;;;;16.13;7.75;;;11.80;82.40;;;;;;5033896;28;20395;-78
2022/04/22 07:10:20;;;;;;;10.38;7.85;;;11.60;83.90;;;;;;5051765;28;20051;-77
2022/04/22 07:12:46;;;;;;;12.18;7.05;;;11.60;83.60;;;;;;5033683;28;20071;-76
2022/04/22 07:15:12;;;;;;;13.73;8.23;;;11.60;84.20;;;;;;5051193;28;20032;-77
2022/04/22 07:17:38;;;;;;;11.23;7.07;;;11.70;84.30;;;;;;5051587;28;20025;-77
2022/04/22 07:20:13;;;;;;;15.18;8.52;;;11.80;83.50;;;;;;5051131;28;20101;-78
2022/04/22 07:22:40;;;;;;;12.80;9.05;;;11.90;83.70;;;;;;5033487;28;20033;-78
2022/04/22 07:25:07;;;;;;;13.10;9.45;;;11.80;83.10;;;;;;5050181;28;20028;-78
2022/04/22 07:27:36;;;;;;;10.55;8.60;;;11.60;84.30;;;;;;5053702;28;20072;-77
2022/04/22 07:30:07;;;;;;;13.65;8.30;;;11.40;84.80;;;;;;5055692;28;20037;-79
2022/04/22 07:32:35;;;;;;;12.65;8.60;;;11.30;85.40;;;;;;5054918;28;20082;-77
2022/04/22 07:35:01;;;;;;;13.02;9.18;;;11.30;85.30;;;;;;5055481;28;20051;-77
2022/04/22 07:37:27;;;;;;;12.95;8.45;;;11.30;85.60;;;;;;5055470;28;20398;-78
2022/04/22 07:39:53;;;;;;;14.77;9.85;;;11.40;85.80;;;;;;5055329;28;20085;-78
2022/04/22 07:42:20;;;;;;;14.63;9.27;;;11.40;85.40;;;;;;5055268;28;20381;-77
2022/04/22 07:47:36;;;;;;;14.77;8.93;;;11.30;85.60;;;;;;5055720;28;20139;-76
2022/04/22 07:50:06;;;;;;;18.33;10.50;;;11.40;85.60;;;;;;5037372;28;20115;-77
2022/04/22 07:52:36;;;;;;;11.38;8.68;;;11.50;85.50;;;;;;5055573;28;20428;-78
2022/04/22 07:55:03;;;;;;;15.63;10.85;;;11.50;84.70;;;;;;5037508;28;20085;-79
2022/04/22 07:57:29;;;;;;;11.05;8.25;;;11.50;85.50;;;;;;5055350;28;20024;-77
2022/04/22 07:59:55;;;;;;;19.13;8.82;;;11.50;85.60;;;;;;5055130;28;20052;-79
2022/04/22 08:02:21;;;;;;;16.63;8.13;;;11.60;85.10;;;;;;5055009;28;20051;-78
2022/04/22 08:04:47;;;;;;;10.73;7.97;;;11.80;84.20;;;;;;5055227;28;20107;-78
2022/04/22 08:07:13;;;;;;;14.65;10.43;;;11.70;83.80;;;;;;5055540;28;20124;-77
2022/04/22 08:09:38;;;;;;;12.75;7.95;;;11.60;83.90;;;;;;5055680;28;20040;-77
2022/04/22 08:12:05;;;;;;;13.48;8.05;;;11.50;84.40;;;;;;5055121;28;20093;-78
2022/04/22 08:14:34;;;;;;;11.52;7.90;;;11.40;85.20;;;;;;5054673;28;20040;-78
2022/04/22 08:17:01;;;;;;;13.35;8.40;;;11.50;84.80;;;;;;5055061;28;20029;-78
2022/04/22 08:19:27;;;;;;;9.02;7.18;;;11.40;84.50;;;;;;5054698;28;20072;-79
2022/04/22 08:21:52;;;;;;;11.80;7.78;;;11.30;84.30;;;;;;5036446;28;20025;-81
2022/04/22 08:24:18;;;;;;;17.00;10.65;;;11.20;85.00;;;;;;5037035;28;20021;-79
2022/04/22 08:26:45;;;;;;;16.80;9.85;;;11.10;85.90;;;;;;5036760;28;20120;-78
2022/04/22 08:29:11;;;;;;;14.07;9.02;;;11.10;86.20;;;;;;5037017;28;20037;-79
2022/04/22 08:31:37;;;;;;;22.58;9.63;;;11.20;86.00;;;;;;5054512;28;20029;-76
2022/04/22 08:34:03;;;;;;;15.50;7.57;;;11.40;86.40;;;;;;5054516;28;20040;-77
2022/04/22 08:36:30;;;;;;;25.23;13.02;;;11.50;85.10;;;;;;5054196;28;20048;-79
2022/04/22 08:38:59;;;;;;;13.43;8.40;;;11.60;84.70;;;;;;5035727;28;20044;-80
2022/04/22 08:41:26;;;;;;;16.70;9.52;;;11.60;84.80;;;;;;5054440;28;20037;-77
2022/04/22 08:43:58;;;;;;;12.93;7.93;;;11.70;84.60;;;;;;5054882;28;20035;-78
2022/04/22 08:51:56;;;;;;;17.40;10.23;;;11.70;84.10;;;;;;5054692;28;20036;-78
2022/04/22 08:54:24;;;;;;;12.05;8.93;;;11.90;83.50;;;;;;5036528;28;20025;-77
2022/04/22 08:56:50;;;;;;;18.90;10.32;;;12.10;83.00;;;;;;5053876;28;20017;-77
2022/04/22 08:59:18;;;;;;;11.07;8.90;;;11.90;82.90;;;;;;5054209;28;20029;-77
2022/04/22 09:01:44;;;;;;;19.75;9.98;;;12.00;83.20;;;;;;5053163;28;20029;-78
2022/04/22 09:04:11;;;;;;;16.67;9.15;;;12.00;83.10;;;;;;5037083;28;20079;-79
2022/04/22 09:06:37;;;;;;;15.00;9.95;;;12.10;83.00;;;;;;5054211;28;20036;-78
2022/04/22 09:09:06;;;;;;;14.43;9.30;;;12.20;82.70;;;;;;5053823;28;20504;-78
2022/04/22 09:11:38;;;;;;;15.40;8.23;;;12.30;82.30;;;;;;5035816;28;20410;-78
2022/04/22 09:14:04;;;;;;;14.50;8.43;;;12.40;82.00;;;;;;5036321;28;20032;-82
2022/04/22 09:16:30;;;;;;;13.85;8.18;;;12.40;81.50;;;;;;5053220;28;20021;-78
2022/04/22 09:19:03;;;;;;;13.10;8.02;;;12.50;81.20;;;;;;5053684;28;20029;-77
2022/04/22 09:21:32;;;;;;;13.93;8.48;;;12.60;80.70;;;;;;5054213;28;20155;-79
2022/04/22 09:24:13;;;;;;;15.65;8.27;;;12.70;80.60;;;;;;5053804;28;20041;-77
2022/04/22 09:26:40;;;;;;;12.45;8.55;;;12.70;80.00;;;;;;5053726;28;20096;-78
2022/04/22 09:29:06;;;;;;;9.85;7.07;;;12.70;79.90;;;;;;5053436;28;20083;-79
2022/04/22 09:31:49;;;;;;;12.45;8.43;;;12.70;79.70;;;;;;5052852;28;20021;-77
2022/04/22 09:34:31;;;;;;;14.25;8.18;;;12.60;80.40;;;;;;5053533;28;20100;-77
2022/04/22 09:42:58;;;;;;;16.77;8.38;;;13.10;79.10;;;;;;5053480;28;20128;-77
2022/04/22 09:45:39;;;;;;;13.48;8.13;;;13.10;78.40;;;;;;5053092;28;20100;-79
2022/04/22 09:48:17;;;;;;;21.55;8.65;;;13.20;78.30;;;;;;5052624;28;20589;-77
2022/04/22 09:50:54;;;;;;;17.55;9.50;;;13.40;77.90;;;;;;5051998;28;20029;-78
2022/04/22 09:53:33;;;;;;;14.70;8.05;;;13.60;77.40;;;;;;5053192;28;20033;-78
2022/04/22 09:56:09;;;;;;;21.17;8.18;;;13.90;76.70;;;;;;5053050;28;20035;-77
2022/04/22 09:58:36;;;;;;;15.13;8.35;;;14.30;75.80;;;;;;5052983;28;20021;-79
2022/04/22 10:01:05;;;;;;;11.63;8.60;;;14.60;74.60;;;;;;5053007;28;20440;-79
2022/04/22 10:03:32;;;;;;;13.85;7.95;;;14.70;73.40;;;;;;5052330;28;20021;-79
2022/04/22 10:05:59;;;;;;;17.73;10.30;;;14.70;72.50;;;;;;5035263;28;20032;-80
2022/04/22 10:08:28;;;;;;;22.25;10.35;;;14.50;73.10;;;;;;5052686;28;20034;-79
2022/04/22 10:10:57;;;;;;;13.65;8.68;;;14.60;73.80;;;;;;5052710;28;20021;-80
2022/04/22 10:13:30;;;;;;;12.85;9.20;;;14.60;72.50;;;;;;5052818;28;20048;-80
2022/04/22 10:15:56;;;;;;;15.40;8.52;;;14.70;72.00;;;;;;5052409;28;20021;-78
2022/04/22 10:18:23;;;;;;;10.23;8.98;;;14.80;71.70;;;;;;5052320;28;20037;-78
2022/04/22 10:20:49;;;;;;;;;;;14.50;71.30;;;;;;5052328;28;20029;-77
2022/04/22 10:23:15;;;;;;;9.52;6.88;;;14.40;72.90;;;;;;5034573;28;19916;-78
2022/04/22 10:25:41;;;;;;;14.80;7.93;;;14.50;71.80;;;;;;5052665;28;20025;-77
2022/04/22 10:28:09;;;;;;;9.07;7.03;;;14.50;71.80;;;;;;5052298;28;20189;-79
2022/04/22 10:30:37;;;;;;;15.55;6.75;;;14.60;71.40;;;;;;5052573;28;20100;-78
2022/04/22 10:33:03;;;;;;;14.13;6.50;;;14.60;71.20;;;;;;5034554;28;20504;-76
2022/04/22 10:35:29;;;;;;;10.63;6.50;;;14.60;71.40;;;;;;5051827;28;20041;-80
2022/04/22 10:37:58;;;;;;;11.88;5.95;;;14.80;70.40;;;;;;5051506;28;20028;-79
2022/04/22 10:40:26;;;;;;;7.93;6.57;;;15.00;69.90;;;;;;5052049;28;20052;-79
2022/04/22 10:42:55;;;;;;;10.48;7.88;;;15.20;68.90;;;;;;5052684;28;20111;-78
2022/04/22 10:48:19;;;;;;;16.27;7.72;;;15.20;68.40;;;;;;5052032;28;20028;-77
2022/04/22 10:50:58;;;;;;;11.45;7.93;;;15.20;69.00;;;;;;5051954;28;20025;-77
2022/04/22 10:53:28;;;;;;;10.88;6.82;;;15.20;68.60;;;;;;5051994;28;20025;-78
2022/04/22 10:56:26;;;;;;;10.48;7.00;;;15.00;68.60;;;;;;5017392;28;20063;-79
2022/04/22 10:59:20;;;;;;;9.30;6.30;;;14.80;68.80;;;;;;5033527;28;20028;-79
2022/04/22 11:01:47;;;;;;;11.25;8.90;;;14.70;69.10;;;;;;5033711;28;20098;-77
2022/04/22 11:04:30;;;;;;;7.63;5.97;;;14.60;69.00;;;;;;5033646;28;20025;-83
2022/04/22 11:06:57;;;;;;;9.93;7.20;;;14.40;69.20;;;;;;5033817;28;20033;-80
2022/04/22 11:09:32;;;;;;;15.35;7.72;;;14.20;70.00;;;;;;5051822;28;20064;-78
2022/04/22 11:11:59;;;;;;;11.82;7.78;;;14.00;71.20;;;;;;5052737;28;20034;-77
2022/04/22 11:14:27;;;;;;;12.55;7.43;;;13.90;71.80;;;;;;5054581;28;20081;-78
2022/04/22 11:16:54;;;;;;;13.13;8.10;;;13.80;72.00;;;;;;5056763;28;20100;-79
2022/04/22 11:19:20;;;;;;;14.32;8.20;;;13.80;72.00;;;;;;5055415;28;20120;-78
2022/04/22 11:21:50;;;;;;;18.80;8.05;;;13.90;72.10;;;;;;5034956;28;20136;-79
2022/04/22 11:24:20;;;;;;;8.50;7.43;;;13.80;72.20;;;;;;5034413;28;20021;-79
2022/04/22 11:26:47;;;;;;;9.68;6.72;;;13.80;72.50;;;;;;5052488;28;20068;-79
2022/04/22 11:29:15;;;;;;;12.88;6.97;;;13.60;72.50;;;;;;5051410;28;20095;-79
2022/04/22 11:32:02;;;;;;;9.00;6.82;;;13.50;72.90;;;;;;5052052;28;20061;-79
2022/04/22 11:34:59;;;;;;;13.85;7.45;;;13.40;73.20;;;;;;5051381;28;20439;-78
2022/04/22 11:37:25;;;;;;;13.13;7.00;;;13.40;73.40;;;;;;5051818;28;20104;-78
2022/04/22 11:39:51;;;;;;;15.88;8.43;;;13.30;73.60;;;;;;5051752;28;20159;-78
2022/04/22 11:42:18;;;;;;;13.70;8.32;;;13.30;73.90;;;;;;5051586;28;20098;-78
2022/04/22 11:45:04;;;;;;;17.43;9.27;;;13.20;74.30;;;;;;5051690;28;20023;-80
2022/04/22 11:47:30;;;;;;;12.48;8.30;;;13.10;74.50;;;;;;5031662;28;20061;-78
2022/04/22 11:49:56;;;;;;;14.48;8.43;;;13.00;74.60;;;;;;5031679;28;20151;-80
2022/04/22 11:52:22;;;;;;;22.58;8.82;;;12.90;75.00;;;;;;5051469;28;20500;-77
2022/04/22 11:54:51;;;;;;;12.82;8.73;;;12.90;75.30;;;;;;5051326;28;20033;-79
2022/04/22 11:57:18;;;;;;;12.68;7.93;;;12.90;75.50;;;;;;5051837;28;20021;-78
2022/04/22 12:05:32;;;;;;;10.90;8.47;;;12.80;75.50;;;;;;5033667;28;20586;-79
2022/04/22 12:05:32;;;;;;;10.93;7.97;;;12.60;76.10;;;;;;5051390;28;20044;-79
2022/04/22 12:08:05;;;;;;;12.23;7.65;;;12.40;76.80;;;;;;5051606;28;20078;-80
2022/04/22 12:10:32;;;;;;;16.95;8.82;;;12.40;76.90;;;;;;5051357;28;20029;-78
2022/04/22 12:13:01;;;;;;;10.40;8.45;;;12.50;77.10;;;;;;5051233;28;20029;-79
2022/04/22 12:15:27;;;;;;;18.48;9.38;;;12.50;77.00;;;;;;5034535;28;20033;-79
2022/04/22 12:17:53;;;;;;;16.27;7.85;;;12.50;77.10;;;;;;5034814;28;20033;-78
2022/04/22 12:20:22;;;;;;;13.68;8.32;;;12.50;77.00;;;;;;5049813;28;20040;-76
2022/04/22 12:22:48;;;;;;;14.43;8.13;;;12.50;77.20;;;;;;5054684;28;20029;-78
2022/04/22 12:25:18;;;;;;;17.90;8.10;;;12.60;77.20;;;;;;5054904;28;20029;-78
2022/04/22 12:28:05;;;;;;;14.18;7.10;;;12.60;77.10;;;;;;5054758;28;20108;-78
2022/04/22 12:30:43;;;;;;;25.90;9.43;;;12.70;77.00;;;;;;5055024;28;20052;-79
2022/04/22 12:33:21;;;;;;;12.52;8.25;;;12.60;77.20;;;;;;5054878;28;20021;-78
2022/04/22 12:35:49;;;;;;;11.23;7.68;;;12.70;77.10;;;;;;5053921;28;20057;-81
2022/04/22 12:38:15;;;;;;;17.08;8.48;;;12.70;77.20;;;;;;5054651;28;20500;-77
2022/04/22 12:40:49;;;;;;;14.63;7.55;;;12.70;77.00;;;;;;5054950;28;20505;-79
2022/04/22 12:43:34;;;;;;;16.15;9.40;;;12.70;76.90;;;;;;5054874;28;20048;-80
2022/04/22 12:52:08;;;;;;;13.57;7.30;;;12.60;77.00;;;;;;5054290;28;20069;-79
2022/04/22 12:54:35;;;;;;;14.00;8.77;;;12.60;77.00;;;;;;5054346;28;20053;-80
2022/04/22 12:57:00;;;;;;;18.35;7.57;;;12.60;77.00;;;;;;5054074;28;20029;-79
2022/04/22 12:59:47;;;;;;;18.58;8.23;;;12.60;76.90;;;;;;5054326;28;20029;-78
2022/04/22 13:02:16;;;;;;;24.02;8.38;;;12.70;76.90;;;;;;5054594;28;20029;-78
2022/04/22 13:04:55;;;;;;;10.40;6.45;;;12.60;77.50;;;;;;5054655;28;20033;-79
2022/04/22 13:07:22;;;;;;;12.20;7.78;;;12.70;76.60;;;;;;5054890;28;20497;-78
2022/04/22 13:09:48;;;;;;;16.47;8.60;;;12.60;76.30;;;;;;5035313;28;20563;-78
2022/04/22 13:12:14;;;;;;;14.52;8.95;;;12.60;76.50;;;;;;5053835;28;20278;-79
2022/04/22 13:14:41;;;;;;;13.38;8.27;;;12.60;76.60;;;;;;5054031;28;20053;-79
2022/04/22 13:17:16;;;;;;;13.68;7.38;;;12.60;76.30;;;;;;5054214;28;20040;-78
2022/04/22 13:19:42;;;;;;;15.05;11.00;;;12.70;76.20;;;;;;5053702;28;20259;-77
2022/04/22 13:22:08;;;;;;;10.45;7.43;;;12.60;76.40;;;;;;5053678;28;20027;-77
2022/04/22 13:24:34;;;;;;;11.45;6.40;;;12.70;76.00;;;;;;5053504;28;20399;-78
2022/04/22 13:27:00;;;;;;;9.80;6.20;;;12.80;75.70;;;;;;5034533;28;20028;-79
2022/04/22 13:29:25;;;;;;;14.75;8.07;;;12.90;75.50;;;;;;5035240;28;20103;-78
2022/04/22 13:31:51;;;;;;;11.57;6.65;;;12.90;75.40;;;;;;5053361;28;20437;-77
2022/04/22 13:34:17;;;;;;;13.25;7.72;;;12.90;75.10;;;;;;5034702;28;20037;-80
2022/04/22 13:36:43;;;;;;;14.85;7.65;;;12.90;75.00;;;;;;5034890;28;20049;-79
2022/04/22 13:39:09;;;;;;;10.77;7.80;;;12.90;75.20;;;;;;5052937;28;20025;-77
2022/04/22 13:41:34;;;;;;;18.13;9.13;;;12.90;75.20;;;;;;5052894;28;20090;-81